createdAt,value
2023-11-01T00:10:11.866Z,515.00
2023-11-01T00:25:12.603Z,512.00
2023-11-01T00:40:13.362Z,512.00
2023-11-01T00:55:14.177Z,514.00
2023-11-01T01:10:14.881Z,503.00
2023-11-01T01:25:15.651Z,510.00
2023-11-01T01:40:16.515Z,513.00
2023-11-01T01:55:16.765Z,514.00
2023-11-01T02:10:17.538Z,513.00
2023-11-01T02:25:18.290Z,516.00
2023-11-01T02:40:19.067Z,518.00
2023-11-01T02:55:19.810Z,519.00
2023-11-01T03:10:20.673Z,510.00
2023-11-01T03:25:20.928Z,516.00
2023-11-01T03:40:21.703Z,516.00
2023-11-01T03:55:22.470Z,520.00
2023-11-01T04:10:23.220Z,515.00
2023-11-01T04:25:24.009Z,517.00
2023-11-01T04:40:24.859Z,521.00
2023-11-01T04:55:25.079Z,523.00
2023-11-01T05:10:25.824Z,524.00
2023-11-01T05:25:29.184Z,522.00
2023-11-01T05:40:27.225Z,533.00
2023-11-01T06:10:28.264Z,549.00
2023-11-01T06:25:29.005Z,544.00
2023-11-01T06:40:29.731Z,555.00
2023-11-01T06:55:30.553Z,555.00
2023-11-01T07:10:31.261Z,549.00
2023-11-01T07:25:32.027Z,521.00
2023-11-01T07:40:32.784Z,520.00
2023-11-01T07:55:33.447Z,520.00
2023-11-01T08:10:34.163Z,511.00
2023-11-01T08:25:35.980Z,511.00
2023-11-01T08:40:35.869Z,517.00
2023-11-01T08:55:36.984Z,528.00
2023-11-01T09:10:37.077Z,528.00
2023-11-01T09:25:37.713Z,536.00
2023-11-01T09:40:38.364Z,538.00
2023-11-01T09:55:39.006Z,534.00
2023-11-01T10:10:39.626Z,523.00
2023-11-01T10:25:40.257Z,527.00
2023-11-01T10:40:40.787Z,515.00
2023-11-01T10:55:41.261Z,519.00
2023-11-01T11:10:41.701Z,515.00
2023-11-01T11:25:42.186Z,527.00
2023-11-01T11:40:42.722Z,516.00
2023-11-01T11:55:43.083Z,519.00
2023-11-01T12:10:43.599Z,516.00
2023-11-01T12:25:44.122Z,512.00
2023-11-01T12:40:44.682Z,512.00
2023-11-01T12:55:45.087Z,514.00
2023-11-01T13:10:45.558Z,520.00
2023-11-01T13:25:46.080Z,522.00
2023-11-01T13:40:46.611Z,532.00
2023-11-01T13:55:49.775Z,526.00
2023-11-01T14:10:47.947Z,531.00
2023-11-01T14:25:48.503Z,535.00
2023-11-01T14:40:49.141Z,538.00
2023-11-01T14:55:49.652Z,545.00
2023-11-01T15:10:50.111Z,546.00
2023-11-01T15:25:50.606Z,564.00
2023-11-01T15:40:51.214Z,543.00
2023-11-01T15:55:51.660Z,549.00
2023-11-01T16:10:52.317Z,560.00
2023-11-01T16:25:55.073Z,586.00
2023-11-01T16:40:53.739Z,580.00
2023-11-01T16:55:54.365Z,584.00
2023-11-01T17:10:55.017Z,575.00
2023-11-01T17:25:55.799Z,598.00
2023-11-01T17:40:56.478Z,582.00
2023-11-01T17:55:57.142Z,590.00
2023-11-01T18:10:57.803Z,582.00
2023-11-01T18:25:58.486Z,587.00
2023-11-01T18:40:59.150Z,604.00
2023-11-01T18:55:59.884Z,647.00
2023-11-01T19:11:00.602Z,608.00
2023-11-01T19:26:01.358Z,584.00
2023-11-01T19:41:02.064Z,589.00
2023-11-01T19:56:02.802Z,591.00
2023-11-01T20:11:03.499Z,582.00
2023-11-01T20:26:04.392Z,582.00
2023-11-01T20:41:04.578Z,575.00
2023-11-01T20:56:05.349Z,582.00
2023-11-01T21:11:06.106Z,567.00
2023-11-01T21:26:06.844Z,547.00
2023-11-01T21:41:07.652Z,553.00
2023-11-01T21:56:07.855Z,549.00
2023-11-01T22:11:08.699Z,556.00
2023-11-01T22:26:08.905Z,556.00
2023-11-01T22:41:09.682Z,561.00
2023-11-01T22:56:10.627Z,580.00
2023-11-01T23:11:10.900Z,608.00
2023-11-01T23:26:11.686Z,592.00
2023-11-01T23:41:12.471Z,609.00
2023-11-01T23:56:13.224Z,597.00
